Time;durP1;ratioP1;P1;durP2;ratioP2;P2;SDS_P1;SDS_P2;PMS_P1;PMS_P2;Temp;Humidity;BMP_temperature;BMP_pressure;BME280_temperature;BME280_humidity;BME280_pressure;Samples;Min_cycle;Max_cycle;Signal;HPM_P1;HPM_P2
2021/06/29 00:01:27;;;;;;;16.73;4.78;;;;;;;;;;5041189;28;20097;-63
2021/06/29 00:03:57;;;;;;;24.10;5.63;;;;;;;;;;5040885;28;20021;-62
2021/06/29 00:06:23;;;;;;;19.00;5.32;;;;;;;;;;5050102;28;20032;-62
2021/06/29 00:08:51;;;;;;;21.95;4.97;;;;;;;;;;5040850;28;20126;-63
2021/06/29 00:11:16;;;;;;;14.90;4.88;;;;;;;;;;5045266;28;20056;-63
2021/06/29 00:13:50;;;;;;;26.63;5.75;;;;;;;;;;5043846;28;20521;-63
2021/06/29 00:16:15;;;;;;;32.00;5.00;;;;;;;;;;5041576;28;20036;-61
2021/06/29 00:18:43;;;;;;;14.30;4.35;;;;;;;;;;5043562;28;20059;-68
2021/06/29 00:21:16;;;;;;;15.57;4.88;;;;;;;;;;5042532;28;20505;-63
2021/06/29 00:23:43;;;;;;;14.77;5.00;;;;;;;;;;5049011;28;20078;-63
2021/06/29 00:26:11;;;;;;;14.15;4.25;;;;;;;;;;5031802;28;20041;-60
2021/06/29 00:28:39;;;;;;;13.30;4.63;;;;;;;;;;5042330;28;20036;-64
2021/06/29 00:31:05;;;;;;;14.98;4.38;;;;;;;;;;5058459;28;20066;-63
2021/06/29 00:33:31;;;;;;;10.48;4.20;;;;;;;;;;5057745;28;20032;-62
2021/06/29 00:35:57;;;;;;;15.70;4.68;;;;;;;;;;5058873;28;20824;-64
2021/06/29 00:38:23;;;;;;;19.17;4.50;;;;;;;;;;5040813;28;20033;-63
2021/06/29 00:40:51;;;;;;;17.48;4.40;;;;;;;;;;5058763;28;22429;-63
2021/06/29 00:43:22;;;;;;;41.65;5.38;;;;;;;;;;5059020;28;20024;-63
2021/06/29 00:45:47;;;;;;;18.10;4.63;;;;;;;;;;5058679;28;20056;-65
2021/06/29 00:48:16;;;;;;;19.38;4.45;;;;;;;;;;5032866;28;20032;-62
2021/06/29 00:50:42;;;;;;;19.85;4.28;;;;;;;;;;5040027;28;20066;-63
2021/06/29 00:53:10;;;;;;;19.95;5.32;;;;;;;;;;5049923;28;20047;-62
2021/06/29 00:55:38;;;;;;;21.58;4.80;;;;;;;;;;5058556;28;20074;-62
2021/06/29 00:58:09;;;;;;;32.80;5.22;;;;;;;;;;5049836;28;21984;-63
2021/06/29 01:00:41;;;;;;;18.58;4.93;;;;;;;;;;5059639;28;20028;-62
2021/06/29 01:03:07;;;;;;;32.63;5.22;;;;;;;;;;5043604;28;20449;-62
2021/06/29 01:05:35;;;;;;;31.77;5.35;;;;;;;;;;5041003;28;20027;-63
2021/06/29 01:08:03;;;;;;;24.17;5.22;;;;;;;;;;5044550;28;20083;-63
2021/06/29 01:10:30;;;;;;;32.20;5.10;;;;;;;;;;5042859;28;20918;-63
2021/06/29 01:13:01;;;;;;;38.05;6.05;;;;;;;;;;5041863;28;20047;-62
2021/06/29 01:15:26;;;;;;;19.05;4.63;;;;;;;;;;5057532;28;20148;-63
2021/06/29 01:17:57;;;;;;;27.05;5.57;;;;;;;;;;5057540;28;20117;-62
2021/06/29 01:20:29;;;;;;;24.05;5.20;;;;;;;;;;5049235;28;20043;-62
2021/06/29 01:22:58;;;;;;;21.00;4.13;;;;;;;;;;5058025;28;20069;-62
2021/06/29 01:25:27;;;;;;;26.83;5.20;;;;;;;;;;5059125;28;20035;-63
2021/06/29 01:28:38;;;;;;;15.65;4.22;;;;;;;;;;5042916;28;20028;-61
2021/06/29 01:31:07;;;;;;;22.13;4.78;;;;;;;;;;5032692;28;20059;-62
2021/06/29 01:33:58;;;;;;;34.38;5.50;;;;;;;;;;5039827;28;20032;-63
2021/06/29 01:36:35;;;;;;;25.02;5.60;;;;;;;;;;5057873;28;20036;-63
2021/06/29 01:39:06;;;;;;;30.00;5.80;;;;;;;;;;5056773;28;20836;-64
2021/06/29 01:41:34;;;;;;;22.17;5.90;;;;;;;;;;5058780;28;20491;-62
2021/06/29 01:44:09;;;;;;;23.17;5.15;;;;;;;;;;5056858;28;20155;-63
2021/06/29 01:46:40;;;;;;;20.60;5.65;;;;;;;;;;5057436;28;20048;-62
2021/06/29 01:49:06;;;;;;;21.73;5.60;;;;;;;;;;5025614;28;20078;-62
2021/06/29 01:51:34;;;;;;;40.67;7.00;;;;;;;;;;5039296;28;20389;-63
2021/06/29 01:54:00;;;;;;;34.35;5.55;;;;;;;;;;5048588;28;20035;-63
2021/06/29 01:56:30;;;;;;;20.98;5.35;;;;;;;;;;5038487;28;20060;-62
2021/06/29 01:58:59;;;;;;;28.17;5.78;;;;;;;;;;5057549;28;20195;-63
2021/06/29 02:01:24;;;;;;;40.58;6.75;;;;;;;;;;5046127;28;20033;-63
2021/06/29 02:03:49;;;;;;;31.52;5.90;;;;;;;;;;5045569;28;20037;-62
2021/06/29 02:06:15;;;;;;;42.63;6.30;;;;;;;;;;5048160;28;20036;-61
2021/06/29 02:08:41;;;;;;;29.02;5.65;;;;;;;;;;5029900;28;20082;-62
2021/06/29 02:11:09;;;;;;;29.98;5.60;;;;;;;;;;5039385;28;20060;-62
2021/06/29 02:13:35;;;;;;;32.03;6.35;;;;;;;;;;5040566;28;20143;-62
2021/06/29 02:16:01;;;;;;;32.45;7.45;;;;;;;;;;5040517;28;20037;-62
2021/06/29 02:18:27;;;;;;;29.08;6.50;;;;;;;;;;5044574;28;20063;-61
2021/06/29 02:20:53;;;;;;;40.67;6.32;;;;;;;;;;5057469;28;20085;-61
2021/06/29 02:23:23;;;;;;;36.70;6.20;;;;;;;;;;5048114;28;20710;-61
2021/06/29 02:25:50;;;;;;;23.35;6.18;;;;;;;;;;5057147;28;20028;-61
2021/06/29 02:28:15;;;;;;;26.98;6.82;;;;;;;;;;5025588;28;20041;-62
2021/06/29 02:30:41;;;;;;;35.22;6.78;;;;;;;;;;5054436;28;20043;-62
2021/06/29 02:33:07;;;;;;;33.78;6.43;;;;;;;;;;5025863;28;20372;-63
2021/06/29 02:35:33;;;;;;;35.38;6.15;;;;;;;;;;5051762;28;20060;-61
2021/06/29 02:38:03;;;;;;;30.88;6.47;;;;;;;;;;5059981;28;20450;-62
2021/06/29 02:40:28;;;;;;;41.97;7.45;;;;;;;;;;5051649;28;20755;-63
2021/06/29 02:42:56;;;;;;;43.88;7.75;;;;;;;;;;5033909;28;20036;-62
2021/06/29 02:45:26;;;;;;;32.42;7.28;;;;;;;;;;5044679;28;20742;-63
2021/06/29 02:47:58;;;;;;;32.85;7.22;;;;;;;;;;5046152;28;20028;-62
2021/06/29 02:50:26;;;;;;;35.72;6.88;;;;;;;;;;5052240;28;20498;-63
2021/06/29 02:52:54;;;;;;;23.98;6.57;;;;;;;;;;5042206;28;20993;-60
2021/06/29 02:55:20;;;;;;;36.90;6.45;;;;;;;;;;5046108;28;20976;-62
2021/06/29 02:57:46;;;;;;;41.38;6.78;;;;;;;;;;5059042;28;20545;-61
2021/06/29 03:00:16;;;;;;;37.53;6.45;;;;;;;;;;5042222;28;20028;-61
2021/06/29 03:02:42;;;;;;;50.80;7.70;;;;;;;;;;5059344;28;20024;-61
2021/06/29 03:05:12;;;;;;;32.20;7.38;;;;;;;;;;5051656;28;20158;-63
2021/06/29 03:07:41;;;;;;;37.80;7.57;;;;;;;;;;5058469;28;20036;-62
2021/06/29 03:10:07;;;;;;;41.50;7.03;;;;;;;;;;5056674;28;20028;-62
2021/06/29 03:12:32;;;;;;;27.15;6.15;;;;;;;;;;5051195;28;20101;-64
2021/06/29 03:14:59;;;;;;;35.90;6.75;;;;;;;;;;5025513;28;20727;-62
2021/06/29 03:17:27;;;;;;;35.88;7.30;;;;;;;;;;5060104;28;20478;-63
2021/06/29 03:19:53;;;;;;;34.70;6.82;;;;;;;;;;5044640;28;20024;-63
2021/06/29 03:22:19;;;;;;;31.58;5.82;;;;;;;;;;5044018;28;20036;-63
2021/06/29 03:24:44;;;;;;;22.90;6.60;;;;;;;;;;5034470;28;20036;-62
2021/06/29 03:27:12;;;;;;;33.13;6.68;;;;;;;;;;5034089;28;20047;-63
2021/06/29 03:29:40;;;;;;;29.17;6.60;;;;;;;;;;5059736;28;20032;-63
2021/06/29 03:32:07;;;;;;;22.75;5.65;;;;;;;;;;5059308;28;20028;-62
2021/06/29 03:34:32;;;;;;;35.78;6.43;;;;;;;;;;5059497;28;20024;-63
2021/06/29 03:37:03;;;;;;;33.47;6.20;;;;;;;;;;5047087;28;20034;-62
2021/06/29 03:39:29;;;;;;;32.13;7.18;;;;;;;;;;5022915;28;20084;-65
2021/06/29 03:41:59;;;;;;;27.70;6.88;;;;;;;;;;5059649;28;20016;-64
2021/06/29 03:44:27;;;;;;;36.75;7.07;;;;;;;;;;5058606;28;20035;-62
2021/06/29 03:46:53;;;;;;;31.17;6.72;;;;;;;;;;5043917;28;20048;-64
2021/06/29 03:49:20;;;;;;;36.38;6.60;;;;;;;;;;5059845;28;20028;-62
2021/06/29 03:51:46;;;;;;;32.00;6.50;;;;;;;;;;5041373;28;20653;-63
2021/06/29 03:54:14;;;;;;;16.77;5.72;;;;;;;;;;5049628;28;20089;-64
2021/06/29 03:56:41;;;;;;;31.13;6.20;;;;;;;;;;5059818;28;20958;-63
2021/06/29 03:59:07;;;;;;;32.72;6.28;;;;;;;;;;5034094;28;20021;-64
2021/06/29 04:01:33;;;;;;;32.70;5.95;;;;;;;;;;5047298;28;20020;-64
2021/06/29 04:04:01;;;;;;;42.03;6.82;;;;;;;;;;5041160;28;20739;-63
2021/06/29 04:06:28;;;;;;;40.58;6.18;;;;;;;;;;5060010;28;20484;-64
2021/06/29 04:08:57;;;;;;;40.42;6.68;;;;;;;;;;5024674;28;20036;-63
2021/06/29 04:11:23;;;;;;;36.42;6.65;;;;;;;;;;5059137;28;21023;-65
2021/06/29 04:16:21;;;;;;;43.05;6.57;;;;;;;;;;4986099;28;20046;-63
2021/06/29 04:18:46;;;;;;;32.35;6.25;;;;;;;;;;4981834;28;20048;-63
2021/06/29 04:21:13;;;;;;;21.25;6.18;;;;;;;;;;4988920;28;20050;-62
2021/06/29 04:23:42;;;;;;;30.35;6.50;;;;;;;;;;4967325;28;20403;-62
2021/06/29 04:26:16;;;;;;;30.00;6.05;;;;;;;;;;4983632;28;20127;-63
2021/06/29 04:28:44;;;;;;;25.17;5.93;;;;;;;;;;4989451;28;20041;-63
2021/06/29 04:31:13;;;;;;;22.75;6.30;;;;;;;;;;4950853;28;20730;-64
2021/06/29 04:33:38;;;;;;;34.25;5.95;;;;;;;;;;4971139;28;20042;-64
2021/06/29 04:36:04;;;;;;;28.02;6.57;;;;;;;;;;4970637;28;20104;-63
2021/06/29 04:38:32;;;;;;;24.90;5.57;;;;;;;;;;4983211;28;20704;-63
2021/06/29 04:40:57;;;;;;;19.00;6.13;;;;;;;;;;4967451;28;20042;-63
2021/06/29 04:43:30;;;;;;;24.55;5.63;;;;;;;;;;4956271;28;20034;-63
2021/06/29 04:45:58;;;;;;;19.50;6.25;;;;;;;;;;4967550;28;21421;-63
2021/06/29 04:48:24;;;;;;;22.17;6.38;;;;;;;;;;4987779;28;20026;-63
2021/06/29 04:50:50;;;;;;;32.03;6.28;;;;;;;;;;4965489;28;20068;-65
2021/06/29 04:53:18;;;;;;;25.90;5.93;;;;;;;;;;4974846;28;20469;-63
2021/06/29 04:55:46;;;;;;;26.75;6.47;;;;;;;;;;4989164;28;20567;-64
2021/06/29 04:58:15;;;;;;;15.55;5.32;;;;;;;;;;4974947;28;20908;-62
2021/06/29 05:00:44;;;;;;;25.73;6.55;;;;;;;;;;4970540;28;20041;-64
2021/06/29 05:03:12;;;;;;;15.95;5.53;;;;;;;;;;4974318;28;20033;-64
2021/06/29 05:05:40;;;;;;;31.38;5.68;;;;;;;;;;4961978;28;20995;-62
2021/06/29 05:08:12;;;;;;;14.25;5.13;;;;;;;;;;4988877;28;20037;-63
2021/06/29 05:10:42;;;;;;;22.45;6.45;;;;;;;;;;4990462;28;20065;-64
2021/06/29 05:13:10;;;;;;;27.80;5.88;;;;;;;;;;4955518;28;20377;-62
2021/06/29 05:15:36;;;;;;;19.45;5.55;;;;;;;;;;4954522;28;20576;-63
2021/06/29 05:18:02;;;;;;;19.60;5.35;;;;;;;;;;4970060;28;20038;-63
2021/06/29 05:20:27;;;;;;;29.92;6.15;;;;;;;;;;4968524;28;20030;-64
2021/06/29 05:22:57;;;;;;;31.35;6.03;;;;;;;;;;4941848;28;20026;-64
2021/06/29 05:25:25;;;;;;;27.38;5.88;;;;;;;;;;4982658;28;20053;-62
2021/06/29 05:27:51;;;;;;;22.10;5.85;;;;;;;;;;4966715;28;20062;-63
2021/06/29 05:30:20;;;;;;;21.08;5.50;;;;;;;;;;4967758;28;20276;-63
2021/06/29 05:32:50;;;;;;;20.63;6.53;;;;;;;;;;4963306;28;20027;-63
2021/06/29 05:35:16;;;;;;;29.13;6.55;;;;;;;;;;4968934;28;20109;-63
2021/06/29 05:37:43;;;;;;;16.02;5.72;;;;;;;;;;4953949;28;20038;-63
2021/06/29 05:40:09;;;;;;;19.58;5.47;;;;;;;;;;4978422;28;20041;-62
2021/06/29 05:42:37;;;;;;;18.65;5.93;;;;;;;;;;4959812;28;20050;-63
2021/06/29 05:45:03;;;;;;;32.58;5.97;;;;;;;;;;4966796;28;20172;-63
2021/06/29 05:47:28;;;;;;;29.17;6.28;;;;;;;;;;4967165;28;20693;-63
2021/06/29 05:49:57;;;;;;;18.67;5.70;;;;;;;;;;4958259;28;20038;-64
2021/06/29 05:52:25;;;;;;;28.25;6.22;;;;;;;;;;4968288;28;20492;-63
2021/06/29 05:54:51;;;;;;;27.15;6.45;;;;;;;;;;4982944;28;20034;-63
2021/06/29 05:57:17;;;;;;;22.55;6.93;;;;;;;;;;4964041;28;20237;-63
2021/06/29 05:59:44;;;;;;;30.02;6.82;;;;;;;;;;4951849;28;20610;-62
2021/06/29 06:02:10;;;;;;;23.08;5.68;;;;;;;;;;4960266;28;20042;-62
2021/06/29 06:04:38;;;;;;;30.52;6.38;;;;;;;;;;4982639;28;20027;-63
2021/06/29 06:07:06;;;;;;;14.70;5.95;;;;;;;;;;4970865;28;20030;-63
2021/06/29 06:09:32;;;;;;;33.63;7.20;;;;;;;;;;4980861;28;20116;-63
2021/06/29 06:12:03;;;;;;;29.17;6.50;;;;;;;;;;4985602;28;20728;-64
2021/06/29 06:14:29;;;;;;;31.42;6.95;;;;;;;;;;4984288;28;20054;-63
2021/06/29 06:16:57;;;;;;;24.65;7.35;;;;;;;;;;4973208;28;20038;-64
2021/06/29 06:19:27;;;;;;;26.33;7.05;;;;;;;;;;4962047;28;20128;-63
2021/06/29 06:21:55;;;;;;;25.75;5.85;;;;;;;;;;4985740;28;20112;-62
2021/06/29 06:24:22;;;;;;;27.83;6.65;;;;;;;;;;4973629;28;20140;-62
2021/06/29 06:26:48;;;;;;;29.50;7.43;;;;;;;;;;4979622;28;20031;-62
2021/06/29 06:29:14;;;;;;;26.13;7.13;;;;;;;;;;4955691;28;20198;-64
2021/06/29 06:31:41;;;;;;;30.63;8.05;;;;;;;;;;4956677;28;20030;-64
2021/06/29 06:34:07;;;;;;;29.20;7.35;;;;;;;;;;4954424;28;20081;-62
2021/06/29 06:36:33;;;;;;;23.45;7.50;;;;;;;;;;4971152;28;20125;-61
2021/06/29 06:39:03;;;;;;;38.63;7.57;;;;;;;;;;4971614;28;20035;-62
2021/06/29 06:41:29;;;;;;;33.42;8.02;;;;;;;;;;4970543;28;20129;-62
2021/06/29 06:43:54;;;;;;;39.53;6.97;;;;;;;;;;4967933;28;20026;-62
2021/06/29 06:46:22;;;;;;;28.58;7.35;;;;;;;;;;4955936;28;20074;-62
2021/06/29 06:48:48;;;;;;;22.25;7.13;;;;;;;;;;4969089;28;20046;-61
2021/06/29 06:51:15;;;;;;;28.75;6.47;;;;;;;;;;4969997;28;20054;-63
2021/06/29 06:53:46;;;;;;;19.60;6.22;;;;;;;;;;4972392;28;20034;-62
2021/06/29 06:56:14;;;;;;;20.70;7.03;;;;;;;;;;4983530;28;20274;-62
2021/06/29 06:58:43;;;;;;;26.55;8.00;;;;;;;;;;4961796;28;20149;-62
2021/06/29 07:01:13;;;;;;;21.90;7.10;;;;;;;;;;4953102;28;20417;-62
2021/06/29 07:03:44;;;;;;;26.77;6.93;;;;;;;;;;4963578;28;20907;-62
2021/06/29 07:06:13;;;;;;;41.92;7.40;;;;;;;;;;4970172;28;21569;-62
2021/06/29 07:08:39;;;;;;;24.83;7.00;;;;;;;;;;4970613;28;22106;-60
2021/06/29 07:11:05;;;;;;;34.60;7.45;;;;;;;;;;4969211;28;20031;-62
2021/06/29 07:13:31;;;;;;;17.45;6.65;;;;;;;;;;4972672;28;20656;-62
2021/06/29 07:15:56;;;;;;;28.13;6.90;;;;;;;;;;4971870;28;20054;-63
2021/06/29 07:18:26;;;;;;;29.08;7.43;;;;;;;;;;4967083;28;20029;-63
2021/06/29 07:20:52;;;;;;;31.52;7.65;;;;;;;;;;4963001;28;20039;-62
2021/06/29 07:23:22;;;;;;;24.35;7.13;;;;;;;;;;4968222;28;20038;-62
2021/06/29 07:25:52;;;;;;;33.38;7.13;;;;;;;;;;4971575;28;20358;-63
2021/06/29 07:28:17;;;;;;;37.20;7.35;;;;;;;;;;4955177;28;20034;-62
2021/06/29 07:30:46;;;;;;;30.83;7.55;;;;;;;;;;4967584;28;20999;-63
2021/06/29 07:33:11;;;;;;;24.88;7.13;;;;;;;;;;4977839;28;20162;-63
2021/06/29 07:35:41;;;;;;;33.75;8.00;;;;;;;;;;4969034;28;20038;-62
2021/06/29 07:38:08;;;;;;;36.15;7.32;;;;;;;;;;4961414;28;20097;-62
2021/06/29 07:40:35;;;;;;;21.65;7.95;;;;;;;;;;4984838;28;20037;-62
2021/06/29 07:43:01;;;;;;;33.58;7.00;;;;;;;;;;4982539;28;20117;-63
2021/06/29 07:45:29;;;;;;;27.05;7.47;;;;;;;;;;4952915;28;20024;-63
2021/06/29 07:47:57;;;;;;;20.98;6.47;;;;;;;;;;4968840;28;20222;-63
2021/06/29 07:50:25;;;;;;;31.20;8.15;;;;;;;;;;4984334;28;20045;-62
2021/06/29 07:52:54;;;;;;;27.08;7.80;;;;;;;;;;4970853;28;20505;-62
2021/06/29 07:55:19;;;;;;;25.67;6.80;;;;;;;;;;4970285;28;20049;-62
2021/06/29 07:57:45;;;;;;;28.63;7.22;;;;;;;;;;4971151;28;20034;-63
2021/06/29 08:00:14;;;;;;;29.40;7.18;;;;;;;;;;4966412;28;20074;-63
2021/06/29 08:02:42;;;;;;;27.80;7.53;;;;;;;;;;4966672;28;20109;-63
2021/06/29 08:05:07;;;;;;;22.38;7.15;;;;;;;;;;4983677;28;20029;-62
2021/06/29 08:07:32;;;;;;;25.42;7.15;;;;;;;;;;4953251;28;20034;-63
2021/06/29 08:10:00;;;;;;;28.08;7.78;;;;;;;;;;4943004;28;20066;-63
2021/06/29 08:12:26;;;;;;;21.45;7.63;;;;;;;;;;4962017;28;20178;-62
2021/06/29 08:14:54;;;;;;;24.67;6.85;;;;;;;;;;4983870;28;20046;-62
2021/06/29 08:17:22;;;;;;;20.27;7.20;;;;;;;;;;4983904;28;20461;-62
2021/06/29 08:19:48;;;;;;;27.30;6.78;;;;;;;;;;4971459;28;20417;-62
2021/06/29 08:22:16;;;;;;;21.05;7.22;;;;;;;;;;4970539;28;20113;-62
2021/06/29 08:24:43;;;;;;;28.75;7.00;;;;;;;;;;4970049;28;20022;-62
2021/06/29 08:27:08;;;;;;;32.15;7.00;;;;;;;;;;4969925;28;20341;-63
2021/06/29 08:29:36;;;;;;;29.95;6.90;;;;;;;;;;4970134;28;20030;-62
2021/06/29 08:32:02;;;;;;;29.45;7.45;;;;;;;;;;4960064;28;20061;-63
2021/06/29 08:34:27;;;;;;;23.73;7.55;;;;;;;;;;4966854;28;20670;-62
2021/06/29 08:36:53;;;;;;;22.33;7.07;;;;;;;;;;4964896;28;20030;-62
2021/06/29 08:39:18;;;;;;;30.95;8.13;;;;;;;;;;4947832;28;20109;-63
2021/06/29 08:41:48;;;;;;;30.70;8.95;;;;;;;;;;4943927;28;20022;-61
2021/06/29 08:44:14;;;;;;;29.98;8.65;;;;;;;;;;4961409;28;21422;-63
2021/06/29 08:46:41;;;;;;;24.02;7.43;;;;;;;;;;4965680;28;20030;-62
2021/06/29 08:49:09;;;;;;;27.15;9.27;;;;;;;;;;4966387;28;20034;-62
2021/06/29 08:51:35;;;;;;;33.03;9.00;;;;;;;;;;4963320;28;22026;-62
2021/06/29 08:54:02;;;;;;;27.80;9.52;;;;;;;;;;4965472;28;20061;-63
2021/06/29 08:56:30;;;;;;;26.52;9.40;;;;;;;;;;4958838;28;20041;-63
2021/06/29 08:58:55;;;;;;;26.27;9.23;;;;;;;;;;4968164;28;20022;-62
2021/06/29 09:01:21;;;;;;;35.17;9.90;;;;;;;;;;4940616;28;20100;-62
2021/06/29 09:03:46;;;;;;;27.65;9.65;;;;;;;;;;4962175;28;20027;-63
2021/06/29 09:06:12;;;;;;;31.77;10.43;;;;;;;;;;4964734;28;20528;-64
2021/06/29 09:08:39;;;;;;;35.92;10.13;;;;;;;;;;4963597;28;20485;-63
2021/06/29 09:11:09;;;;;;;27.35;9.70;;;;;;;;;;4963815;28;20045;-62
2021/06/29 09:13:35;;;;;;;34.22;9.98;;;;;;;;;;4979208;28;20504;-62
2021/06/29 09:16:00;;;;;;;30.35;10.55;;;;;;;;;;4956494;28;20054;-62
2021/06/29 09:18:31;;;;;;;33.83;9.70;;;;;;;;;;4963732;28;20034;-63
2021/06/29 09:21:04;;;;;;;33.80;11.88;;;;;;;;;;4967559;28;20681;-63
2021/06/29 09:23:34;;;;;;;33.08;10.68;;;;;;;;;;4962281;28;20022;-62
2021/06/29 09:26:01;;;;;;;26.13;10.02;;;;;;;;;;4965384;28;20904;-63
2021/06/29 09:28:28;;;;;;;28.70;9.75;;;;;;;;;;4964709;28;20026;-62
2021/06/29 09:30:58;;;;;;;24.60;9.13;;;;;;;;;;4975687;28;20858;-61
2021/06/29 09:33:31;;;;;;;32.80;9.20;;;;;;;;;;4964418;28;20041;-62
2021/06/29 09:35:58;;;;;;;38.38;10.23;;;;;;;;;;4980395;28;20069;-61
2021/06/29 09:38:25;;;;;;;34.80;10.38;;;;;;;;;;4965678;28;20026;-62
2021/06/29 09:40:55;;;;;;;36.53;9.40;;;;;;;;;;4976474;28;20050;-62
2021/06/29 09:43:21;;;;;;;29.50;8.52;;;;;;;;;;4974193;28;20489;-61
2021/06/29 09:45:48;;;;;;;29.38;9.77;;;;;;;;;;4964937;28;20141;-61
2021/06/29 09:48:14;;;;;;;33.35;9.15;;;;;;;;;;4976668;28;20041;-63
2021/06/29 09:50:42;;;;;;;34.38;10.50;;;;;;;;;;4974530;28;20142;-62
2021/06/29 09:53:13;;;;;;;22.45;8.65;;;;;;;;;;4963238;28;22029;-62
2021/06/29 09:55:40;;;;;;;29.60;7.82;;;;;;;;;;4966759;28;20121;-63
2021/06/29 09:58:09;;;;;;;26.38;9.25;;;;;;;;;;4965279;28;20042;-62
2021/06/29 10:00:48;;;;;;;26.20;9.93;;;;;;;;;;4966548;28;20034;-61
2021/06/29 10:03:37;;;;;;;27.92;10.35;;;;;;;;;;4963305;28;20076;-62
2021/06/29 10:06:10;;;;;;;23.10;8.65;;;;;;;;;;4956431;28;20049;-61
2021/06/29 10:08:36;;;;;;;27.80;8.27;;;;;;;;;;4965297;28;20157;-62
2021/06/29 10:11:04;;;;;;;33.90;8.85;;;;;;;;;;4940693;28;20050;-61
2021/06/29 10:13:35;;;;;;;27.90;8.93;;;;;;;;;;4946269;28;20162;-61
2021/06/29 10:16:00;;;;;;;31.85;9.48;;;;;;;;;;4956195;28;20129;-62
2021/06/29 10:18:31;;;;;;;29.40;9.15;;;;;;;;;;4954087;28;20038;-63
2021/06/29 10:21:02;;;;;;;22.50;8.57;;;;;;;;;;4965135;28;20021;-62
2021/06/29 10:23:29;;;;;;;26.70;8.80;;;;;;;;;;4965958;28;20452;-62
2021/06/29 10:25:55;;;;;;;24.60;8.60;;;;;;;;;;4964440;28;20080;-61
2021/06/29 10:28:20;;;;;;;29.52;9.55;;;;;;;;;;4973312;28;20034;-61
2021/06/29 10:30:46;;;;;;;33.50;9.52;;;;;;;;;;4964012;28;20025;-63
2021/06/29 10:33:12;;;;;;;24.27;8.80;;;;;;;;;;4962109;28;20032;-61
2021/06/29 10:35:38;;;;;;;40.78;9.45;;;;;;;;;;4956596;28;20033;-61
2021/06/29 10:38:04;;;;;;;30.02;9.25;;;;;;;;;;4978030;28;20030;-61
2021/06/29 10:40:31;;;;;;;28.77;8.60;;;;;;;;;;4955470;28;20022;-61
2021/06/29 10:42:59;;;;;;;25.05;8.57;;;;;;;;;;4978984;28;20393;-62
2021/06/29 10:45:32;;;;;;;24.58;9.25;;;;;;;;;;4962787;28;20092;-62
2021/06/29 10:48:16;;;;;;;25.33;9.40;;;;;;;;;;4962359;28;20105;-66
2021/06/29 10:50:44;;;;;;;35.75;9.40;;;;;;;;;;4974853;28;20121;-61
2021/06/29 10:53:29;;;;;;;28.77;9.80;;;;;;;;;;4968273;28;20030;-61
2021/06/29 10:55:54;;;;;;;31.05;9.55;;;;;;;;;;4953545;28;20030;-61
2021/06/29 10:58:52;;;;;;;24.90;8.90;;;;;;;;;;4967016;28;20045;-61
2021/06/29 11:01:19;;;;;;;35.97;9.70;;;;;;;;;;4949213;28;20137;-62
2021/06/29 11:03:47;;;;;;;38.60;9.40;;;;;;;;;;4976016;28;20584;-61
2021/06/29 11:06:13;;;;;;;27.90;9.88;;;;;;;;;;4984759;28;20531;-62
2021/06/29 11:08:46;;;;;;;33.08;9.60;;;;;;;;;;4968364;28;20623;-61
2021/06/29 11:11:14;;;;;;;34.00;9.45;;;;;;;;;;4968109;28;20398;-61
2021/06/29 11:13:40;;;;;;;33.97;11.10;;;;;;;;;;4970224;28;20057;-61
2021/06/29 11:16:08;;;;;;;32.15;10.43;;;;;;;;;;4981331;28;20056;-60
2021/06/29 11:18:34;;;;;;;28.75;9.55;;;;;;;;;;4983340;28;20107;-61
2021/06/29 11:21:04;;;;;;;42.05;11.15;;;;;;;;;;4975552;28;20034;-62
2021/06/29 11:23:31;;;;;;;39.22;10.85;;;;;;;;;;4990072;28;20037;-62
2021/06/29 11:26:00;;;;;;;29.90;9.70;;;;;;;;;;4983261;28;20978;-62
2021/06/29 11:28:30;;;;;;;35.90;9.93;;;;;;;;;;4990824;28;20357;-62
2021/06/29 11:31:04;;;;;;;37.10;10.90;;;;;;;;;;4972750;28;20112;-60
2021/06/29 11:33:36;;;;;;;43.05;11.27;;;;;;;;;;4985462;28;20121;-62
2021/06/29 11:36:02;;;;;;;31.23;11.73;;;;;;;;;;4966991;28;20036;-60
2021/06/29 11:38:42;;;;;;;38.25;10.55;;;;;;;;;;4988989;28;20030;-61
2021/06/29 11:41:37;;;;;;;42.42;11.48;;;;;;;;;;4959861;28;20477;-64
2021/06/29 11:44:08;;;;;;;40.28;11.95;;;;;;;;;;4962194;28;20073;-63
2021/06/29 11:46:49;;;;;;;40.08;11.57;;;;;;;;;;4989331;28;20046;-63
2021/06/29 11:49:28;;;;;;;34.13;11.30;;;;;;;;;;4988860;28;20172;-63
2021/06/29 11:52:22;;;;;;;39.45;11.10;;;;;;;;;;4986223;28;20034;-63
2021/06/29 11:54:53;;;;;;;39.63;12.15;;;;;;;;;;4972838;28;20046;-62
2021/06/29 11:57:22;;;;;;;50.33;11.80;;;;;;;;;;4989022;28;20033;-62
2021/06/29 11:59:49;;;;;;;46.17;13.07;;;;;;;;;;4990329;28;20026;-61
2021/06/29 12:02:20;;;;;;;42.13;11.43;;;;;;;;;;4968981;28;20369;-62
2021/06/29 12:04:55;;;;;;;39.88;10.98;;;;;;;;;;4971425;28;20032;-61
2021/06/29 12:07:33;;;;;;;41.97;11.98;;;;;;;;;;4987505;28;20143;-62
2021/06/29 12:10:06;;;;;;;42.10;11.35;;;;;;;;;;4987291;28;20040;-62
2021/06/29 12:12:34;;;;;;;38.17;11.48;;;;;;;;;;4972452;28;20697;-62
2021/06/29 12:15:01;;;;;;;43.72;10.70;;;;;;;;;;4989322;28;20092;-61
2021/06/29 12:17:29;;;;;;;35.97;10.82;;;;;;;;;;4987947;28;20050;-62
2021/06/29 12:19:59;;;;;;;39.80;10.95;;;;;;;;;;4987136;28;20063;-62
2021/06/29 12:22:28;;;;;;;43.70;10.60;;;;;;;;;;4974022;28;20885;-61
2021/06/29 12:24:54;;;;;;;41.17;11.15;;;;;;;;;;4975379;28;20146;-62
2021/06/29 12:27:22;;;;;;;31.80;9.48;;;;;;;;;;4971528;28;20046;-60
2021/06/29 12:29:50;;;;;;;37.70;9.57;;;;;;;;;;4989108;28;22108;-61
2021/06/29 12:32:20;;;;;;;40.40;10.20;;;;;;;;;;4971877;28;20049;-61
2021/06/29 12:34:47;;;;;;;34.45;10.38;;;;;;;;;;4986980;28;20666;-61
2021/06/29 12:37:14;;;;;;;33.80;9.13;;;;;;;;;;4973308;28;20045;-60
2021/06/29 12:39:42;;;;;;;40.83;11.18;;;;;;;;;;4988738;28;20107;-60
2021/06/29 12:42:15;;;;;;;32.80;10.27;;;;;;;;;;4974456;28;20037;-61
2021/06/29 12:44:41;;;;;;;38.83;12.10;;;;;;;;;;4988306;28;20048;-60
2021/06/29 12:47:15;;;;;;;43.75;11.35;;;;;;;;;;4972956;28;20038;-61
2021/06/29 12:49:41;;;;;;;37.38;11.95;;;;;;;;;;4963012;28;20034;-60
2021/06/29 12:52:10;;;;;;;39.80;10.90;;;;;;;;;;4985635;28;20045;-60
2021/06/29 12:54:39;;;;;;;32.25;9.50;;;;;;;;;;4984707;28;20428;-61
2021/06/29 12:57:06;;;;;;;41.05;10.93;;;;;;;;;;4984948;28;20038;-61
2021/06/29 12:59:36;;;;;;;34.97;11.90;;;;;;;;;;4969178;28;20030;-61
2021/06/29 13:02:07;;;;;;;32.40;10.15;;;;;;;;;;4967514;28;20030;-61
2021/06/29 13:04:45;;;;;;;32.50;11.45;;;;;;;;;;4987217;28;20025;-61
2021/06/29 13:07:16;;;;;;;37.08;9.93;;;;;;;;;;4958519;28;20446;-60
2021/06/29 13:09:42;;;;;;;34.40;10.80;;;;;;;;;;4986361;28;20028;-60
2021/06/29 13:12:10;;;;;;;35.15;10.70;;;;;;;;;;4987190;28;20039;-60
2021/06/29 13:14:50;;;;;;;36.28;10.27;;;;;;;;;;4988516;28;20038;-60
2021/06/29 13:17:16;;;;;;;31.58;10.13;;;;;;;;;;4950380;28;20046;-61
2021/06/29 13:19:44;;;;;;;33.45;9.50;;;;;;;;;;4986318;28;20049;-62
2021/06/29 13:22:13;;;;;;;40.33;9.70;;;;;;;;;;4972488;28;20034;-60
2021/06/29 13:24:44;;;;;;;35.88;10.68;;;;;;;;;;4981162;28;20445;-61
2021/06/29 13:27:12;;;;;;;32.63;9.38;;;;;;;;;;4964229;28;20045;-60
2021/06/29 13:29:41;;;;;;;38.03;8.68;;;;;;;;;;4970034;28;20029;-60
2021/06/29 13:32:17;;;;;;;27.38;9.27;;;;;;;;;;4987793;28;20037;-61
2021/06/29 13:34:43;;;;;;;30.05;9.75;;;;;;;;;;4972341;28;20113;-62
2021/06/29 13:37:24;;;;;;;30.98;7.80;;;;;;;;;;4984104;28;20110;-60
2021/06/29 13:39:52;;;;;;;30.40;8.95;;;;;;;;;;4987035;28;20923;-60
2021/06/29 13:42:29;;;;;;;24.95;7.80;;;;;;;;;;4973526;28;20026;-60
2021/06/29 13:44:55;;;;;;;30.35;7.55;;;;;;;;;;4979872;28;20034;-62
2021/06/29 13:47:24;;;;;;;23.17;8.35;;;;;;;;;;4972686;28;20124;-61
2021/06/29 13:50:12;;;;;;;37.50;8.27;;;;;;;;;;4971292;28;20034;-61
2021/06/29 13:53:00;;;;;;;26.67;8.15;;;;;;;;;;4971932;28;21093;-60
2021/06/29 13:55:26;;;;;;;25.55;7.95;;;;;;;;;;4986525;28;20114;-59
2021/06/29 13:57:52;;;;;;;21.95;7.63;;;;;;;;;;4983608;28;20542;-61
2021/06/29 14:00:22;;;;;;;31.17;7.75;;;;;;;;;;4986970;28;20029;-61
2021/06/29 14:03:01;;;;;;;30.25;7.32;;;;;;;;;;4982426;28;20140;-61
2021/06/29 14:05:32;;;;;;;33.40;7.50;;;;;;;;;;4985017;28;20041;-61
2021/06/29 14:08:10;;;;;;;28.60;7.03;;;;;;;;;;4984269;28;20037;-61
2021/06/29 14:10:40;;;;;;;27.15;6.10;;;;;;;;;;4978472;28;20106;-62
2021/06/29 14:13:09;;;;;;;21.60;7.10;;;;;;;;;;4981950;28;20049;-60
2021/06/29 14:15:35;;;;;;;22.38;6.57;;;;;;;;;;4988015;28;20157;-61
2021/06/29 14:18:02;;;;;;;19.55;5.97;;;;;;;;;;4978016;28;20034;-60
2021/06/29 14:20:28;;;;;;;21.05;5.75;;;;;;;;;;4949183;28;20048;-61
2021/06/29 14:22:56;;;;;;;14.55;6.22;;;;;;;;;;4970558;28;20030;-61
2021/06/29 14:25:21;;;;;;;18.70;6.13;;;;;;;;;;4985332;28;20680;-61
2021/06/29 14:27:51;;;;;;;15.95;5.82;;;;;;;;;;4990551;28;20049;-60
2021/06/29 14:30:17;;;;;;;22.70;6.63;;;;;;;;;;4973106;28;20115;-60
2021/06/29 14:32:44;;;;;;;14.85;6.20;;;;;;;;;;4981563;28;20477;-62
2021/06/29 14:35:13;;;;;;;17.15;6.10;;;;;;;;;;4992564;28;20042;-61
2021/06/29 14:37:41;;;;;;;24.15;6.95;;;;;;;;;;4988517;28;20029;-61
2021/06/29 14:40:10;;;;;;;19.17;7.53;;;;;;;;;;4967053;28;20045;-61